Time;durP1;ratioP1;P1;durP2;ratioP2;P2;SDS_P1;SDS_P2;PMS_P1;PMS_P2;Temp;Humidity;BMP_temperature;BMP_pressure;BME280_temperature;BME280_humidity;BME280_pressure;Samples;Min_cycle;Max_cycle;Signal;HPM_P1;HPM_P2
2023/01/23 00:01:58;;;;;;;36.10;22.13;;;;;;;41.72;37.55;100928.00;6094534;23;20214;-84
2023/01/23 00:04:24;;;;;;;30.90;19.97;;;;;;;41.54;37.92;100924.59;6094372;23;20169;-84
2023/01/23 00:06:50;;;;;;;36.20;21.90;;;;;;;41.62;37.77;100921.03;6119877;23;20402;-84
2023/01/23 00:09:16;;;;;;;28.40;20.83;;;;;;;41.69;37.66;100928.69;6095730;23;20214;-85
2023/01/23 00:11:42;;;;;;;39.53;21.50;;;;;;;41.91;37.16;100941.19;6097063;23;20438;-86
2023/01/23 00:14:09;;;;;;;33.00;22.23;;;;;;;41.95;37.17;100931.25;6073006;23;20488;-87
2023/01/23 00:16:35;;;;;;;32.37;21.60;;;;;;;41.94;36.91;100929.66;6072710;23;20165;-85
2023/01/23 00:19:01;;;;;;;35.27;23.20;;;;;;;41.98;37.22;100942.25;6072282;23;20398;-85
2023/01/23 00:21:28;;;;;;;32.80;19.53;;;;;;;41.90;37.42;100937.69;6095833;23;20469;-80
2023/01/23 00:23:56;;;;;;;41.53;23.80;;;;;;;41.51;37.70;100928.78;6071897;23;20390;-81
2023/01/23 00:26:25;;;;;;;38.93;21.20;;;;;;;41.56;37.57;100920.44;6072058;23;20395;-81
2023/01/23 00:28:52;;;;;;;33.30;20.40;;;;;;;41.66;37.82;100904.81;6072005;23;20740;-80
2023/01/23 00:31:28;;;;;;;30.63;20.17;;;;;;;41.81;37.65;100917.91;6071571;23;20421;-81
2023/01/23 00:33:57;;;;;;;38.17;22.50;;;;;;;41.92;37.43;100912.81;6095932;23;20398;-81
2023/01/23 00:36:24;;;;;;;39.70;23.50;;;;;;;41.93;37.81;100906.25;6096607;23;20482;-81
2023/01/23 00:38:50;;;;;;;39.03;22.73;;;;;;;41.88;37.66;100904.53;6071941;23;20466;-81
2023/01/23 00:41:16;;;;;;;36.00;23.27;;;;;;;41.78;37.79;100905.72;6071250;23;20445;-80
2023/01/23 00:43:41;;;;;;;37.53;22.53;;;;;;;41.88;37.53;100904.53;6095980;23;20178;-82
2023/01/23 00:46:07;;;;;;;33.60;21.40;;;;;;;41.90;37.25;100901.47;6071525;23;20422;-81
2023/01/23 00:48:33;;;;;;;31.30;22.33;;;;;;;41.91;37.41;100901.13;6095841;23;20386;-85
2023/01/23 00:50:59;;;;;;;27.90;20.93;;;;;;;41.88;37.49;100884.66;6071830;23;20159;-86
2023/01/23 00:53:43;;;;;;;36.57;23.00;;;;;;;41.87;37.54;100883.88;6072610;23;20458;-89
2023/01/23 00:56:09;;;;;;;34.83;22.17;;;;;;;41.82;37.53;100881.34;6096927;23;20418;-93
2023/01/23 00:58:35;;;;;;;34.40;22.80;;;;;;;41.98;37.92;100879.59;6095468;23;20883;-86
2023/01/23 01:01:01;;;;;;;33.97;20.73;;;;;;;41.82;37.24;100873.97;6096857;23;20409;-85
2023/01/23 01:03:27;;;;;;;47.53;21.80;;;;;;;41.80;37.62;100887.09;6096401;23;20383;-85
2023/01/23 01:05:53;;;;;;;37.73;22.00;;;;;;;41.68;38.07;100875.31;6071894;23;20565;-85
2023/01/23 01:08:19;;;;;;;42.40;21.50;;;;;;;41.78;37.74;100870.31;6072344;23;20387;-85
2023/01/23 01:10:45;;;;;;;38.33;22.33;;;;;;;41.90;37.73;100863.31;6095376;23;20383;-79
2023/01/23 01:13:11;;;;;;;33.40;22.47;;;;;;;41.81;37.73;100874.31;6071436;23;20431;-80
2023/01/23 01:15:38;;;;;;;34.83;23.03;;;;;;;41.76;37.88;100879.94;6071373;23;20419;-79
2023/01/23 01:18:04;;;;;;;26.07;20.27;;;;;;;41.82;37.53;100876.69;6070944;23;20391;-80
2023/01/23 01:20:30;;;;;;;27.53;19.57;;;;;;;41.82;37.64;100865.00;6071337;23;20473;-80
2023/01/23 01:22:59;;;;;;;37.27;21.83;;;;;;;41.76;37.87;100874.50;6095471;23;20415;-80
2023/01/23 01:25:26;;;;;;;37.47;24.10;;;;;;;41.84;37.94;100866.25;6071233;23;20482;-80
2023/01/23 01:27:52;;;;;;;29.43;21.20;;;;;;;41.79;37.64;100855.53;6071637;23;20391;-80
2023/01/23 01:30:18;;;;;;;32.23;22.73;;;;;;;41.73;38.09;100850.59;6071192;23;20478;-83
2023/01/23 01:32:44;;;;;;;34.53;20.13;;;;;;;41.61;37.93;100840.44;6071191;23;20226;-81
2023/01/23 01:35:10;;;;;;;46.77;23.53;;;;;;;41.73;37.75;100837.78;6070921;23;20730;-80
2023/01/23 01:37:38;;;;;;;35.43;20.50;;;;;;;41.73;37.78;100843.22;6071319;23;20470;-80
2023/01/23 01:40:06;;;;;;;32.93;26.10;;;;;;;41.71;37.99;100839.25;6071152;23;20390;-80
2023/01/23 01:42:42;;;;;;;35.30;21.03;;;;;;;41.61;38.37;100835.00;6095153;23;20407;-80
2023/01/23 01:45:45;;;;;;;40.80;21.43;;;;;;;41.79;38.26;100832.97;6071108;23;20391;-82
2023/01/23 01:48:11;;;;;;;28.40;22.00;;;;;;;41.76;38.32;100839.88;6071450;23;20383;-85
2023/01/23 01:50:38;;;;;;;36.57;22.60;;;;;;;41.81;38.06;100836.97;6095749;23;20394;-85
2023/01/23 01:53:04;;;;;;;32.67;20.50;;;;;;;41.90;37.76;100828.69;6071121;23;20497;-85
2023/01/23 01:55:31;;;;;;;24.13;19.43;;;;;;;41.91;37.63;100827.56;6071441;23;20836;-80
2023/01/23 01:57:57;;;;;;;34.77;21.53;;;;;;;41.90;37.61;100834.16;6070472;23;20482;-80
2023/01/23 02:00:23;;;;;;;30.97;20.07;;;;;;;41.92;37.86;100837.31;6070746;23;20415;-80
2023/01/23 02:02:52;;;;;;;28.40;20.70;;;;;;;41.95;37.64;100828.50;6070145;23;20390;-83
2023/01/23 02:05:29;;;;;;;52.20;22.77;;;;;;;41.90;37.84;100836.88;6095039;23;20387;-83
2023/01/23 02:08:25;;;;;;;42.53;22.30;;;;;;;42.02;37.85;100834.19;6070768;23;20414;-83
2023/01/23 02:10:51;;;;;;;41.70;20.77;;;;;;;42.06;37.58;100826.94;6070871;23;20902;-81
2023/01/23 02:13:32;;;;;;;28.90;20.57;;;;;;;42.03;37.84;100824.88;6070742;23;21006;-80
2023/01/23 02:16:01;;;;;;;28.97;20.30;;;;;;;42.05;37.14;100819.09;6071095;23;20867;-82
2023/01/23 02:18:30;;;;;;;35.53;20.67;;;;;;;42.02;37.29;100823.28;6071146;23;20482;-80
2023/01/23 02:21:00;;;;;;;35.43;21.77;;;;;;;42.08;37.41;100821.94;6070939;23;20406;-81
2023/01/23 02:24:00;;;;;;;32.13;20.93;;;;;;;42.01;37.27;100818.97;6070442;23;20458;-80
2023/01/23 02:26:35;;;;;;;28.20;19.03;;;;;;;42.03;37.27;100821.38;6070732;23;20387;-80
2023/01/23 02:29:03;;;;;;;36.23;21.30;;;;;;;42.03;37.48;100827.59;6070746;23;20398;-80
2023/01/23 02:31:29;;;;;;;37.80;18.77;;;;;;;42.00;37.37;100828.28;6070828;23;20421;-80
2023/01/23 02:33:58;;;;;;;31.00;20.50;;;;;;;42.05;37.58;100824.53;6094883;23;20387;-80
2023/01/23 02:36:30;;;;;;;32.50;23.00;;;;;;;42.05;37.33;100830.81;6070650;23;20387;-83
2023/01/23 02:39:09;;;;;;;24.70;19.47;;;;;;;41.99;37.58;100825.88;6070641;23;20415;-80
2023/01/23 02:41:38;;;;;;;30.53;20.23;;;;;;;41.95;37.12;100828.50;6094160;23;20477;-80
2023/01/23 02:44:14;;;;;;;50.93;26.27;;;;;;;41.97;37.02;100809.09;6069985;23;20490;-87
2023/01/23 02:46:40;;;;;;;27.60;20.30;;;;;;;42.08;36.81;100818.44;6071597;23;20394;-91
2023/01/23 02:49:06;;;;;;;31.27;20.33;;;;;;;41.91;37.16;100815.88;6095733;23;20825;-92
2023/01/23 02:51:32;;;;;;;32.27;21.53;;;;;;;41.96;37.42;100818.41;6094890;23;20395;-92
2023/01/23 02:54:00;;;;;;;34.13;23.23;;;;;;;41.94;37.13;100809.75;6096140;23;20766;-81
2023/01/23 02:56:30;;;;;;;34.13;24.90;;;;;;;41.97;37.18;100795.47;6096446;23;20934;-93
2023/01/23 03:01:41;;;;;;;37.67;19.20;;;;;;;42.04;36.75;100787.53;6095099;23;20378;-80
2023/01/23 03:04:08;;;;;;;39.50;21.40;;;;;;;41.97;36.97;100787.28;6094725;23;20394;-89
2023/01/23 03:06:36;;;;;;;35.23;21.20;;;;;;;42.00;36.96;100798.31;6070851;23;20395;-82
2023/01/23 03:09:09;;;;;;;29.77;20.37;;;;;;;42.00;36.95;100792.06;6070414;23;20386;-85
2023/01/23 03:11:37;;;;;;;36.87;22.10;;;;;;;41.97;36.92;100803.63;6071226;23;20927;-87
2023/01/23 03:14:05;;;;;;;38.57;21.90;;;;;;;41.97;36.91;100792.72;6071164;23;20383;-87
2023/01/23 03:16:33;;;;;;;29.93;19.13;;;;;;;42.00;36.68;100794.81;6070835;23;20414;-85
2023/01/23 03:19:04;;;;;;;27.00;21.87;;;;;;;42.04;36.86;100784.81;6070466;23;20421;-81
2023/01/23 03:21:34;;;;;;;26.00;20.00;;;;;;;42.06;36.77;100807.09;6070289;23;20800;-81
2023/01/23 03:24:03;;;;;;;28.97;20.53;;;;;;;42.01;36.72;100794.44;6095993;23;20442;-85
2023/01/23 03:26:29;;;;;;;34.90;23.23;;;;;;;41.92;36.87;100795.66;6094615;23;20855;-80
2023/01/23 03:31:40;;;;;;;36.47;21.67;;;;;;;41.91;36.77;100788.63;6095960;23;20750;-80
2023/01/23 03:34:07;;;;;;;41.40;24.23;;;;;;;41.83;37.04;100807.44;6094264;23;20399;-80
2023/01/23 03:36:36;;;;;;;33.57;22.90;;;;;;;41.78;36.88;100790.50;6070406;23;20394;-81
2023/01/23 03:41:48;;;;;;;28.70;23.50;;;;;;;41.89;37.08;100790.91;6095474;23;20686;-80
2023/01/23 03:44:17;;;;;;;35.87;25.70;;;;;;;41.91;36.86;100794.88;6070424;23;20458;-80
2023/01/23 03:46:44;;;;;;;28.83;20.10;;;;;;;41.95;36.76;100801.25;6070296;23;20391;-85
2023/01/23 03:49:10;;;;;;;43.27;19.93;;;;;;;41.99;36.61;100798.63;6093995;23;20414;-81
2023/01/23 03:51:36;;;;;;;35.97;22.70;;;;;;;41.89;36.75;100790.91;6094172;23;20394;-80
2023/01/23 03:54:02;;;;;;;24.13;19.40;;;;;;;41.84;37.16;100791.91;6094069;23;20407;-81
2023/01/23 03:56:28;;;;;;;32.23;22.77;;;;;;;41.89;36.81;100791.69;6095333;23;20437;-80
2023/01/23 03:58:54;;;;;;;30.47;21.50;;;;;;;41.97;36.45;100793.53;6094367;23;20426;-84
2023/01/23 04:01:20;;;;;;;33.73;21.20;;;;;;;41.97;36.56;100792.72;6070488;23;20403;-80
2023/01/23 04:03:46;;;;;;;39.03;20.10;;;;;;;41.85;36.45;100790.75;6069767;23;20386;-80
2023/01/23 04:06:12;;;;;;;30.43;22.43;;;;;;;41.77;36.31;100786.19;6070232;23;20383;-80
2023/01/23 04:08:38;;;;;;;27.20;20.90;;;;;;;41.69;36.54;100782.41;6069940;23;20383;-83
2023/01/23 04:11:07;;;;;;;41.63;20.93;;;;;;;41.79;36.58;100779.28;6070448;23;20599;-84
2023/01/23 04:13:33;;;;;;;30.90;20.97;;;;;;;41.76;36.93;100784.63;6095686;23;20411;-80
2023/01/23 04:16:00;;;;;;;34.57;22.50;;;;;;;41.70;36.99;100789.44;6070244;23;20828;-81
2023/01/23 04:18:27;;;;;;;33.03;22.90;;;;;;;41.70;36.99;100792.16;6069975;23;20379;-81
2023/01/23 04:20:53;;;;;;;28.17;17.63;;;;;;;41.74;36.75;100789.53;6094268;23;20387;-81
2023/01/23 04:23:19;;;;;;;32.50;20.47;;;;;;;41.62;37.27;100782.16;6069970;23;20383;-81
2023/01/23 04:25:45;;;;;;;36.83;20.77;;;;;;;41.73;36.82;100790.69;6070683;23;20391;-81
2023/01/23 04:28:11;;;;;;;31.70;19.80;;;;;;;41.67;36.91;100798.25;6069969;23;20442;-81
2023/01/23 04:30:37;;;;;;;28.20;20.53;;;;;;;41.76;37.17;100795.50;6069907;23;20190;-81
2023/01/23 04:33:03;;;;;;;30.23;20.20;;;;;;;41.81;37.02;100793.38;6069877;23;20517;-84
2023/01/23 04:35:29;;;;;;;33.93;22.10;;;;;;;41.70;37.35;100794.88;6070623;23;20471;-87
2023/01/23 04:37:55;;;;;;;36.20;19.20;;;;;;;41.76;37.44;100790.84;6094695;23;20411;-84
2023/01/23 04:40:21;;;;;;;25.50;19.70;;;;;;;41.80;37.18;100797.22;6071170;23;20875;-86
2023/01/23 04:42:47;;;;;;;38.77;23.23;;;;;;;41.73;37.43;100799.66;6070579;23;20379;-82
2023/01/23 04:45:13;;;;;;;31.67;21.23;;;;;;;41.57;37.81;100798.69;6095010;23;20395;-84
2023/01/23 04:47:39;;;;;;;33.00;19.93;;;;;;;41.73;37.67;100805.09;6070565;23;20186;-86
2023/01/23 04:53:27;;;;;;;30.70;21.47;;;;;;;41.81;36.95;100817.91;6096630;23;20587;-80
2023/01/23 04:55:53;;;;;;;23.43;18.70;;;;;;;41.51;36.88;100810.91;6095539;23;20383;-80
2023/01/23 04:58:19;;;;;;;34.27;22.00;;;;;;;41.73;36.24;100820.66;6095262;23;20513;-81
2023/01/23 05:00:46;;;;;;;38.60;20.97;;;;;;;41.67;36.46;100828.22;6071240;23;20161;-80
2023/01/23 05:03:12;;;;;;;45.43;23.17;;;;;;;41.73;36.55;100824.16;6071315;23;20410;-81
2023/01/23 05:05:38;;;;;;;28.60;20.07;;;;;;;41.82;36.74;100822.22;6071624;23;20391;-80
2023/01/23 05:08:04;;;;;;;32.53;19.10;;;;;;;41.82;36.66;100827.66;6071566;23;20962;-81
2023/01/23 05:10:30;;;;;;;36.43;21.07;;;;;;;41.72;36.69;100819.06;6071600;23;20394;-81
2023/01/23 05:12:56;;;;;;;24.37;18.23;;;;;;;41.80;37.23;100829.91;6071758;23;20454;-80
2023/01/23 05:15:22;;;;;;;31.90;20.67;;;;;;;41.89;37.06;100818.16;6094802;23;20418;-84
2023/01/23 05:17:49;;;;;;;27.10;18.60;;;;;;;41.92;36.87;100828.34;6071484;23;20488;-84
2023/01/23 05:20:15;;;;;;;34.73;21.73;;;;;;;41.88;37.51;100828.25;6070709;23;20447;-81
2023/01/23 05:22:51;;;;;;;34.83;22.07;;;;;;;41.88;36.91;100824.72;6097153;23;20395;-80
2023/01/23 05:25:22;;;;;;;34.23;20.87;;;;;;;41.83;37.07;100842.06;6071317;23;20401;-85
2023/01/23 05:27:48;;;;;;;33.83;22.63;;;;;;;41.71;37.13;100839.25;6071584;23;20399;-80
2023/01/23 05:30:15;;;;;;;36.67;18.70;;;;;;;41.75;37.37;100832.06;6070238;23;20918;-80
2023/01/23 05:32:40;;;;;;;41.30;23.97;;;;;;;41.77;37.44;100833.31;6094757;23;20430;-80
2023/01/23 05:35:07;;;;;;;40.43;22.50;;;;;;;41.70;37.52;100833.00;6095267;23;20402;-80
2023/01/23 05:37:33;;;;;;;36.73;22.03;;;;;;;41.78;37.27;100828.66;6094807;23;20437;-81
2023/01/23 05:39:59;;;;;;;25.30;20.27;;;;;;;41.66;36.51;100829.34;6071474;23;20538;-80
2023/01/23 05:42:25;;;;;;;28.73;19.90;;;;;;;41.71;36.76;100839.25;6071101;23;20423;-81
2023/01/23 05:44:51;;;;;;;30.07;20.90;;;;;;;41.68;37.05;100843.47;6096763;23;20382;-80
2023/01/23 05:47:17;;;;;;;25.13;19.43;;;;;;;41.63;37.36;100834.69;6071175;23;20398;-79
2023/01/23 05:49:44;;;;;;;31.10;21.07;;;;;;;41.56;37.16;100849.63;6096913;23;20187;-80
2023/01/23 05:52:12;;;;;;;29.13;20.20;;;;;;;41.71;36.71;100845.50;6096679;23;20414;-85
2023/01/23 05:54:38;;;;;;;38.93;25.17;;;;;;;41.77;36.26;100846.13;6070516;23;20395;-79
2023/01/23 05:57:03;;;;;;;34.60;23.67;;;;;;;41.65;36.74;100835.94;6070661;23;20443;-82
2023/01/23 05:59:30;;;;;;;55.70;37.87;;;;;;;41.72;36.38;100841.66;6094870;23;20412;-81
2023/01/23 06:01:56;;;;;;;59.93;42.40;;;;;;;41.67;36.85;100841.84;6071027;23;20371;-81
2023/01/23 06:04:21;;;;;;;47.63;33.73;;;;;;;41.69;36.57;100845.03;6094593;23;20898;-79
2023/01/23 06:06:47;;;;;;;50.07;30.30;;;;;;;41.65;36.55;100859.66;6095226;23;20372;-80
2023/01/23 06:09:14;;;;;;;54.23;31.80;;;;;;;41.64;36.70;100860.78;6094737;23;20675;-81
2023/01/23 06:11:39;;;;;;;46.10;34.70;;;;;;;41.64;36.61;100856.13;6096181;23;20187;-81
2023/01/23 06:14:05;;;;;;;45.60;30.00;;;;;;;41.67;36.78;100852.72;6070373;23;20384;-83
2023/01/23 06:16:31;;;;;;;45.40;29.13;;;;;;;41.74;36.30;100855.78;6094476;23;20379;-83
2023/01/23 06:18:57;;;;;;;57.20;33.67;;;;;;;41.73;36.43;100851.41;6094364;23;20519;-83
2023/01/23 06:21:23;;;;;;;54.87;29.50;;;;;;;41.70;36.15;100845.84;6072013;23;20867;-92
2023/01/23 06:23:49;;;;;;;48.70;26.67;;;;;;;41.67;36.41;100843.78;6073491;23;20379;-91
2023/01/23 06:26:39;;;;;;;34.83;23.00;;;;;;;41.53;36.62;100855.72;6095986;23;20382;-86
2023/01/23 06:29:05;;;;;;;40.63;23.60;;;;;;;41.66;36.24;100855.78;6072295;23;20387;-86
2023/01/23 06:31:31;;;;;;;52.47;29.77;;;;;;;41.67;36.77;100869.06;6074164;23;20409;-86
2023/01/23 06:33:58;;;;;;;49.80;29.00;;;;;;;41.82;36.10;100856.81;6096654;23;20370;-80
2023/01/23 06:36:25;;;;;;;51.17;32.00;;;;;;;41.84;36.17;100854.56;6070833;23;20841;-82
2023/01/23 06:38:51;;;;;;;62.57;37.83;;;;;;;41.80;36.01;100859.06;6069427;23;20411;-80
2023/01/23 06:41:17;;;;;;;55.97;31.07;;;;;;;41.83;36.43;100875.56;6069804;23;20418;-85
2023/01/23 06:43:43;;;;;;;46.80;28.23;;;;;;;41.81;36.02;100866.94;6068693;23;20385;-80
2023/01/23 06:46:10;;;;;;;54.43;31.77;;;;;;;41.81;36.22;100872.38;6068918;23;20729;-83
2023/01/23 06:48:38;;;;;;;47.03;25.87;;;;;;;41.94;36.13;100872.44;6069514;23;20500;-85
2023/01/23 06:51:05;;;;;;;35.13;25.40;;;;;;;41.76;36.19;100885.41;6085892;23;20386;-80
2023/01/23 06:53:31;;;;;;;41.57;24.53;;;;;;;41.80;36.12;100891.75;6070229;23;20427;-81
2023/01/23 06:56:02;;;;;;;41.80;26.13;;;;;;;41.82;35.83;100898.47;6070081;23;20386;-81
2023/01/23 06:58:28;;;;;;;38.77;26.83;;;;;;;41.86;35.97;100902.13;6068640;23;20533;-81
2023/01/23 07:00:54;;;;;;;42.73;25.70;;;;;;;41.71;36.14;100910.06;6069350;23;20473;-80
2023/01/23 07:03:20;;;;;;;36.93;21.40;;;;;;;41.73;35.71;100910.53;6069858;23;20387;-81
2023/01/23 07:05:46;;;;;;;44.00;22.03;;;;;;;41.85;36.06;100916.09;6094253;23;20399;-82
2023/01/23 07:08:12;;;;;;;32.77;21.00;;;;;;;41.78;35.95;100930.25;6069938;23;20386;-80
2023/01/23 07:10:45;;;;;;;44.97;24.23;;;;;;;41.91;35.82;100935.75;6071394;23;20415;-84
2023/01/23 07:13:11;;;;;;;53.27;21.97;;;;;;;41.91;35.86;100933.81;6094367;23;20486;-82
2023/01/23 07:15:37;;;;;;;47.50;22.47;;;;;;;41.81;35.57;100932.31;6070359;23;20395;-83
2023/01/23 07:18:03;;;;;;;37.23;22.93;;;;;;;41.77;35.91;100936.03;6096583;23;20418;-83
2023/01/23 07:20:29;;;;;;;32.67;21.50;;;;;;;41.78;36.14;100938.41;6070237;23;20441;-79
2023/01/23 07:22:57;;;;;;;32.70;23.07;;;;;;;41.74;36.16;100934.78;6095291;23;20387;-83
2023/01/23 07:25:24;;;;;;;37.97;24.00;;;;;;;41.69;36.09;100921.31;6069788;23;20402;-79
2023/01/23 07:27:50;;;;;;;29.70;20.50;;;;;;;41.78;36.01;100940.34;6070497;23;20891;-77
2023/01/23 07:30:19;;;;;;;31.83;21.27;;;;;;;41.79;35.59;100952.81;6093762;23;20390;-86
2023/01/23 07:32:49;;;;;;;32.40;21.03;;;;;;;41.66;35.86;100951.13;6071628;23;20465;-91
2023/01/23 07:35:15;;;;;;;37.80;25.40;;;;;;;41.89;35.97;100965.28;6091907;23;20442;-79
2023/01/23 07:37:41;;;;;;;39.60;24.63;;;;;;;41.86;36.08;100950.38;6069063;23;20391;-81
2023/01/23 07:40:08;;;;;;;45.00;24.03;;;;;;;41.77;35.86;100961.34;6094039;23;20410;-79
2023/01/23 07:42:33;;;;;;;33.40;20.03;;;;;;;41.88;35.64;100963.69;6092703;23;20387;-85
2023/01/23 07:44:59;;;;;;;39.70;23.10;;;;;;;41.84;35.92;100955.34;6067922;23;20474;-80
2023/01/23 07:47:25;;;;;;;36.77;20.90;;;;;;;41.89;35.86;100960.63;6069869;23;20442;-83
2023/01/23 07:49:53;;;;;;;29.97;20.17;;;;;;;41.85;35.99;100962.41;6068549;23;20398;-83
2023/01/23 07:52:27;;;;;;;29.23;20.50;;;;;;;41.94;35.76;100959.63;6092054;23;20427;-86
2023/01/23 07:54:53;;;;;;;34.17;21.10;;;;;;;41.90;35.83;100970.38;6092083;23;20395;-81
2023/01/23 07:57:19;;;;;;;30.73;20.73;;;;;;;41.93;35.91;100972.47;6069643;23;20450;-85
2023/01/23 07:59:46;;;;;;;36.57;24.03;;;;;;;41.95;36.01;100977.56;6069794;23;20186;-81
2023/01/23 08:02:12;;;;;;;34.87;19.87;;;;;;;42.01;35.99;100989.88;6095462;23;20359;-83
2023/01/23 08:04:38;;;;;;;38.80;23.57;;;;;;;42.01;35.33;100981.69;6093459;23;20895;-81
2023/01/23 08:07:05;;;;;;;32.13;20.10;;;;;;;42.07;35.36;100980.38;6070312;23;20387;-82
2023/01/23 08:09:30;;;;;;;51.37;25.77;;;;;;;42.09;35.30;100983.53;6094831;23;20465;-87
2023/01/23 08:11:59;;;;;;;35.50;24.37;;;;;;;42.12;35.47;100994.59;6069890;23;20435;-84
2023/01/23 08:14:41;;;;;;;27.33;20.37;;;;;;;42.01;35.32;101000.78;6094824;23;20146;-85
2023/01/23 08:17:10;;;;;;;31.60;19.83;;;;;;;41.91;35.92;100995.69;6093979;23;20406;-89
2023/01/23 08:19:37;;;;;;;27.37;20.13;;;;;;;42.06;35.70;101012.28;6068925;23;20383;-80
2023/01/23 08:22:03;;;;;;;30.87;20.50;;;;;;;42.17;35.08;101007.22;6095290;23;20226;-82
2023/01/23 08:24:29;;;;;;;31.50;19.87;;;;;;;42.18;35.34;101011.56;6092789;23;20391;-85
2023/01/23 08:26:55;;;;;;;35.50;21.97;;;;;;;42.16;35.66;101011.09;6094751;23;20457;-90
2023/01/23 08:29:21;;;;;;;32.73;22.30;;;;;;;42.13;35.55;101003.56;6071064;23;20425;-88
2023/01/23 08:31:47;;;;;;;43.90;21.23;;;;;;;42.17;35.25;101009.16;6071263;23;20391;-88
2023/01/23 08:34:13;;;;;;;36.30;21.57;;;;;;;42.20;35.52;101017.50;6070760;23;20396;-86
2023/01/23 08:36:40;;;;;;;34.97;21.17;;;;;;;42.14;35.60;101011.41;6071129;23;21060;-88
2023/01/23 08:39:06;;;;;;;37.03;22.33;;;;;;;42.20;35.37;101028.38;6070950;23;20385;-80
2023/01/23 08:41:32;;;;;;;37.20;22.97;;;;;;;42.19;35.47;101024.06;6071117;23;20466;-81
2023/01/23 08:44:00;;;;;;;35.33;21.60;;;;;;;42.20;35.91;101022.94;6095098;23;20375;-80
2023/01/23 08:46:28;;;;;;;34.97;20.77;;;;;;;42.34;35.41;101025.38;6070853;23;20382;-80
2023/01/23 08:48:54;;;;;;;45.80;23.53;;;;;;;42.39;35.26;101023.25;6097306;23;20374;-81
2023/01/23 08:51:20;;;;;;;31.70;18.57;;;;;;;42.14;33.49;101016.06;6095754;23;20383;-82
2023/01/23 08:53:46;;;;;;;32.63;18.37;;;;;;;42.13;33.77;101036.28;6071263;23;21014;-80
2023/01/23 08:56:21;;;;;;;31.93;18.13;;;;;;;42.08;33.51;101037.25;6071722;23;20388;-85
2023/01/23 08:58:47;;;;;;;28.47;16.53;;;;;;;42.19;33.60;101042.34;6087541;23;20201;-80
2023/01/23 09:01:18;;;;;;;33.63;18.60;;;;;;;42.21;33.09;101037.38;6070334;23;20394;-81
2023/01/23 09:03:47;;;;;;;27.10;17.53;;;;;;;42.28;33.50;101045.81;6071674;23;20410;-82
2023/01/23 09:06:17;;;;;;;29.43;19.97;;;;;;;42.27;33.41;101036.03;6096184;23;20399;-82
2023/01/23 09:08:43;;;;;;;23.57;18.70;;;;;;;42.32;33.52;101044.81;6073227;23;20457;-82
2023/01/23 09:11:11;;;;;;;38.57;20.47;;;;;;;42.36;34.05;101034.84;6072152;23;20410;-83
2023/01/23 09:13:37;;;;;;;27.57;17.73;;;;;;;42.44;33.97;101030.44;6096156;23;20462;-83
2023/01/23 09:16:04;;;;;;;26.47;18.60;;;;;;;42.43;33.84;101028.84;6071509;23;20450;-83
2023/01/23 09:18:30;;;;;;;29.40;19.17;;;;;;;42.27;34.35;101034.09;6071318;23;20410;-81
2023/01/23 09:20:56;;;;;;;25.10;15.00;;;;;;;42.24;34.56;101023.88;6070658;23;20391;-80
2023/01/23 09:23:27;;;;;;;27.33;18.30;;;;;;;42.26;34.34;101023.53;6070222;23;20391;-89
2023/01/23 09:25:53;;;;;;;28.07;18.60;;;;;;;42.03;34.91;101017.56;6070362;23;20397;-80
2023/01/23 09:28:20;;;;;;;33.63;18.00;;;;;;;42.06;34.86;101000.56;6095882;23;20393;-84
2023/01/23 09:30:46;;;;;;;29.30;16.63;;;;;;;42.29;34.79;101001.03;6093573;23;20182;-80
2023/01/23 09:33:15;;;;;;;25.37;18.87;;;;;;;42.26;34.83;101007.19;6069633;23;20814;-84
2023/01/23 09:35:44;;;;;;;33.40;18.50;;;;;;;42.21;34.57;100994.53;6085377;23;20158;-80
2023/01/23 09:38:14;;;;;;;21.63;17.67;;;;;;;42.31;34.40;101001.53;6093760;23;21045;-86
2023/01/23 09:40:52;;;;;;;34.67;18.70;;;;;;;42.32;34.15;101003.91;6097816;23;20402;-86
2023/01/23 09:43:45;;;;;;;24.80;17.97;;;;;;;42.46;34.33;101016.47;6098276;23;20391;-88
2023/01/23 09:46:38;;;;;;;27.57;18.33;;;;;;;42.44;34.40;101016.81;6095885;23;20402;-87
2023/01/23 09:49:30;;;;;;;31.50;17.90;;;;;;;42.34;34.65;101023.47;6073115;23;20411;-88
2023/01/23 09:52:25;;;;;;;31.73;19.00;;;;;;;42.28;34.71;101018.53;6097025;23;20473;-87
2023/01/23 09:55:25;;;;;;;22.30;16.13;;;;;;;42.53;34.43;101033.88;6084558;23;20407;-83
2023/01/23 09:58:27;;;;;;;23.90;16.40;;;;;;;42.58;34.40;101032.91;6073171;23;20469;-87
2023/01/23 10:01:01;;;;;;;24.00;18.07;;;;;;;42.55;34.68;101014.47;6072545;23;20387;-88
2023/01/23 10:03:31;;;;;;;25.97;16.63;;;;;;;42.69;34.27;101025.13;6095736;23;20458;-78
2023/01/23 10:06:03;;;;;;;26.97;17.33;;;;;;;42.76;34.30;101026.16;6071043;23;20419;-80
2023/01/23 10:08:42;;;;;;;30.70;19.50;;;;;;;42.69;34.41;101020.47;6071586;23;20386;-85
2023/01/23 10:11:20;;;;;;;23.87;16.23;;;;;;;42.75;34.58;101013.66;6072213;23;20398;-85
2023/01/23 10:13:52;;;;;;;30.20;19.10;;;;;;;42.75;34.37;101002.75;6071443;23;20482;-89
2023/01/23 10:16:38;;;;;;;22.20;16.57;;;;;;;42.63;34.66;101003.50;6072177;23;20406;-89
2023/01/23 10:19:36;;;;;;;23.23;15.57;;;;;;;42.44;35.12;101000.44;6028018;23;20715;-80
2023/01/23 10:22:35;;;;;;;25.00;17.30;;;;;;;42.58;34.33;100994.72;5992838;23;20387;-82
2023/01/23 10:25:18;;;;;;;26.10;19.33;;;;;;;42.53;34.83;101005.81;6093538;23;20409;-80
2023/01/23 10:27:47;;;;;;;31.17;17.30;;;;;;;42.34;35.34;100998.91;6093658;23;20840;-80
2023/01/23 10:30:23;;;;;;;33.90;18.13;;;;;;;42.72;35.02;100989.75;6069531;23;20433;-84
2023/01/23 10:32:58;;;;;;;30.03;17.70;;;;;;;42.71;34.71;100985.44;6069330;23;20911;-81
2023/01/23 10:35:46;;;;;;;22.67;15.90;;;;;;;42.77;34.67;100977.84;6069459;23;20712;-81
2023/01/23 10:38:33;;;;;;;30.10;17.73;;;;;;;42.80;34.57;100974.47;6069499;23;20379;-81
2023/01/23 10:41:18;;;;;;;27.20;17.53;;;;;;;42.90;34.87;100980.25;6093460;23;20709;-80
2023/01/23 10:43:48;;;;;;;40.80;20.50;;;;;;;42.83;34.91;100980.03;6094840;23;20383;-90
2023/01/23 10:46:16;;;;;;;35.47;19.17;;;;;;;42.87;34.76;100978.22;6095385;23;20402;-90
2023/01/23 10:48:53;;;;;;;26.73;20.03;;;;;;;42.76;35.23;100977.06;6096858;23;20359;-79
2023/01/23 10:51:33;;;;;;;34.17;18.00;;;;;;;42.90;34.83;100974.81;6069751;23;20387;-79
2023/01/23 10:53:59;;;;;;;32.53;19.27;;;;;;;42.91;33.90;100984.59;6070049;23;20427;-79
2023/01/23 10:56:25;;;;;;;27.67;19.43;;;;;;;42.95;33.67;100979.25;6070054;23;20874;-83
2023/01/23 10:58:55;;;;;;;40.57;17.97;;;;;;;42.80;33.83;100975.25;6069476;23;20447;-79
2023/01/23 11:01:34;;;;;;;33.90;17.40;;;;;;;42.87;34.18;100978.22;6094413;23;20436;-79
2023/01/23 11:04:22;;;;;;;34.80;17.10;;;;;;;42.92;33.63;100978.00;6070417;23;20383;-80
2023/01/23 11:07:11;;;;;;;27.90;15.97;;;;;;;42.97;33.60;100974.28;6070774;23;20379;-88
2023/01/23 11:09:48;;;;;;;29.20;17.10;;;;;;;43.00;33.41;100978.28;6070775;23;20386;-84
2023/01/23 11:12:17;;;;;;;33.00;21.00;;;;;;;43.06;33.55;100974.97;6069734;23;20430;-87
2023/01/23 11:14:43;;;;;;;24.87;17.00;;;;;;;43.04;33.47;100974.53;6070933;23;20915;-88
2023/01/23 11:17:21;;;;;;;30.63;18.43;;;;;;;43.08;33.62;100975.44;6070333;23;20459;-83
2023/01/23 11:19:53;;;;;;;30.87;19.40;;;;;;;42.91;33.59;100965.50;6070363;23;20807;-82
2023/01/23 11:22:32;;;;;;;29.87;16.47;;;;;;;42.97;34.07;100968.00;6094109;23;20411;-82
2023/01/23 11:24:59;;;;;;;22.90;16.30;;;;;;;43.07;33.70;100973.03;6094886;23;20362;-80
2023/01/23 11:27:29;;;;;;;29.23;16.77;;;;;;;42.95;33.61;100962.09;6070101;23;20457;-80
2023/01/23 11:30:08;;;;;;;32.83;19.60;;;;;;;43.04;33.32;100960.09;6070215;23;20386;-82
2023/01/23 11:33:00;;;;;;;25.93;18.33;;;;;;;43.13;33.33;100952.56;6069988;23;20450;-79